• Join FlightAware (Why Join?)
  • Login
  • US Flag 
01:04AM EDT


 

Airport Tracker/Info


-or-


 

Live Flight TrackerFlight Track Log ✈ N8077J ✈ 04-Oct-2013 ✈ KDTS - KHQZ

Flight Track Log - Related Links

Times and Time Zones

All times are in EDT time to prevent confusion due to time zone crossing. See the N8077J flight status page for this flight to view local times or setup timezone preferences in your user account.

Time Position Orientation Groundspeed Altitude Reporting Facility
EDT Latitude Longitude Course Direction KTS MPH feet Rate Location/Type
04:36PM 30.4807 -86.7620 270° West  Level Estimated
04:37PM 30.5243 -86.7669 354° North  Level FlightAware Approximate
04:38PM 30.5375 -86.8155 254° West  Level Estimated
04:39PM 30.5803 -86.8265 347° North  Level FlightAware Approximate
04:39PM 30.5103 -86.5283 231° Southwest 106 122 7,000  Level Houston Center
04:40PM 30.5131 -86.5633 275° West 108 124 7,600 600 Climbing Houston Center
04:41PM 30.5131 -86.6008 270° West 110 127 8,100 540 Climbing Jacksonville Center
04:42PM 30.6118 -86.9448 287° West  Level Estimated
04:42PM 30.5183 -86.6372 280° West 109 125 8,600  Level Jacksonville Center
04:43PM 30.5870 -86.9809 231° Southwest  Level FlightAware Approximate
04:43PM 30.5194 -86.6733 272° West 108 124 9,100  Level Jacksonville Center
04:44PM 30.5623 -87.0170 231° Southwest  Level FlightAware Approximate
04:44PM 30.5225 -86.7072 276° West 107 123 9,700  Level Jacksonville Center
04:45PM 30.5217 -86.7411 268° West 107 123 10,200 420 Climbing Jacksonville Center
04:46PM 30.5267 -86.7750 280° West 102 117 10,600 420 Climbing Jacksonville Center
04:47PM 30.5278 -86.8064 272° West 102 117 11,100 360 Climbing Jacksonville Center
04:48PM 30.5311 -86.8403 277° West 105 121 11,400 300 Climbing Jacksonville Center
04:49PM 30.5342 -86.8767 276° West 107 123 11,800 300 Climbing Jacksonville Center
04:50PM 30.5372 -86.9106 276° West 110 127 12,100 120 Climbing Jacksonville Center
04:51PM 30.5400 -86.9517 274° West 131 151 12,100  Level Jacksonville Center
04:52PM 30.5428 -87.0000 274° West 148 170 12,100  Level Jacksonville Center
04:53PM 30.5453 -87.0458 274° West 145 167 12,100  Level Jacksonville Center
04:54PM 30.5481 -87.0917 274° West 142 163 12,100  Level Jacksonville Center
04:55PM 30.5528 -87.1403 276° West 143 165 12,100  Level Jacksonville Center
04:56PM 30.5533 -87.1836 271° West 145 167 12,100  Level Jacksonville Center
04:57PM 30.5581 -87.2322 276° West 145 167 12,100  Level Jacksonville Center
04:58PM 30.5606 -87.2781 274° West 146 168 12,100  Level Jacksonville Center
04:59PM 30.5631 -87.3239 274° West 145 167 12,100  Level Jacksonville Center
05:00PM 30.5678 -87.3675 277° West 145 167 12,100  Level Jacksonville Center
05:01PM 30.5703 -87.4161 273° West 145 167 12,100  Level Jacksonville Center
05:02PM 30.5728 -87.4619 274° West 142 163 12,100  Level Jacksonville Center
05:03PM 30.5711 -87.5125 268° West 141 162 12,100  Level Jacksonville Center
05:05PM 30.5644 -87.5825 264° West 139 160 12,100  Level Houston Center
05:06PM 30.5558 -87.6369 260° West 143 165 12,100  Level Houston Center
05:07PM 30.5456 -87.6797 254° West 139 160 12,100  Level Houston Center
05:08PM 30.5364 -87.7228 256° West 137 158 12,100  Level Houston Center
05:09PM 30.5269 -87.7672 256° West 140 161 12,100  Level Houston Center
05:10PM 30.5169 -87.8111 255° West 139 160 12,100  Level Houston Center
05:11PM 30.5078 -87.8547 256° West 140 161 12,100  Level Houston Center
05:12PM 30.4972 -87.9069 257° West 138 159 12,100  Level Houston Center
05:13PM 30.4881 -87.9500 256° West 138 159 12,100  Level Houston Center
05:14PM 30.4783 -87.9928 255° West 136 157 12,100  Level Houston Center
05:15PM 30.4678 -88.0350 254° West 137 158 12,100  Level Houston Center
05:16PM 30.4597 -88.0783 258° West 137 158 12,100  Level Houston Center
05:17PM 30.4536 -88.1242 261° West 142 163 12,100  Level Houston Center
05:18PM 30.4525 -88.1756 269° West 134 154 12,100  Level Houston Center
05:19PM 30.4500 -88.2217 266° West 140 161 12,100  Level Houston Center
05:20PM 30.4458 -88.2667 264° West 140 161 12,100  Level Houston Center
05:21PM 30.4433 -88.3131 266° West 143 165 12,100  Level Houston Center
05:22PM 30.4403 -88.3589 266° West 143 165 12,100  Level Houston Center
05:23PM 30.4375 -88.4050 266° West 142 163 12,100  Level Houston Center
05:24PM 30.4336 -88.4619 265° West 146 168 12,100  Level Houston Center
05:25PM 30.4297 -88.5081 264° West 143 165 12,100  Level Houston Center
05:26PM 30.4269 -88.5547 266° West 144 166 12,100  Level Houston Center
05:28PM 30.4228 -88.6011 264° West 144 166 12,100  Level Houston Center
05:29PM 30.4203 -88.6469 266° West 143 165 12,100  Level Houston Center
05:30PM 30.4172 -88.6928 266° West 143 165 12,100  Level Houston Center
05:31PM 30.4131 -88.7497 265° West 146 168 12,100  Level Houston Center
05:32PM 30.4108 -88.7967 267° West 147 169 12,100  Level Houston Center
05:33PM 30.4067 -88.8436 264° West 147 169 12,100  Level Houston Center
05:34PM 30.4028 -88.8903 264° West 147 169 12,100  Level Houston Center
05:35PM 30.4003 -88.9372 266° West 146 168 12,100 -60 Level Houston Center
05:36PM 30.3997 -88.9850 269° West 147 169 12,000 -60 Descending Houston Center
05:37PM 30.3942 -89.0431 264° West 150 173 12,000  Level Houston Center
05:38PM 30.3922 -89.0889 267° West 147 169 12,000  Level Houston Center
05:39PM 30.3878 -89.1367 264° West 148 170 12,000  Level Houston Center
05:40PM 30.3842 -89.1850 265° West 150 173 12,000  Level Houston Center
05:41PM 30.3811 -89.2308 266° West 146 168 12,000  Level Houston Center
05:42PM 30.3775 -89.2783 265° West 146 168 12,000  Level Houston Center
05:43PM 30.3733 -89.3367 265° West 150 173 12,000 60 Level Houston Center
05:44PM 30.3725 -89.3631 268° West 148 170 12,100  Climbing Houston Center
05:44PM 30.3703 -89.3850 263° West 151 174 12,000  Descending Houston Center
05:45PM 30.3683 -89.4211 266° West 150 173 12,100  Climbing Houston Center
05:45PM 30.3661 -89.4331 258° West 151 174 12,000  Descending Houston Center
05:46PM 30.3622 -89.4889 265° West 149 171 12,100  Climbing Houston Center
05:47PM 30.3592 -89.5181 263° West 148 170 12,100 -120 Level Houston Center
05:47PM 30.3594 -89.5272 272° West 147 169 12,000  Descending Houston Center
05:48PM 30.3567 -89.5664 265° West 151 174 12,100  Climbing Houston Center
05:48PM 30.3556 -89.5761 262° West 149 171 12,000  Descending Houston Center
05:49PM 30.3542 -89.6097 267° West 149 171 12,100  Climbing Houston Center
05:49PM 30.3517 -89.6331 263° West 149 171 12,000  Descending Houston Center
05:50PM 30.3461 -89.6825 263° West 149 171 12,100  Climbing Houston Center
05:50PM 30.3481 -89.6817 20° North 150 173 12,000  Descending Houston Center
05:51PM 30.3436 -89.7308 264° West 152 175 12,100  Climbing Houston Center
05:51PM 30.3442 -89.7289 72° East 149 171 12,000  Descending Houston Center
05:52PM 30.3392 -89.7792 263° West 151 174 12,100 60 Climbing Houston Center
05:52PM 30.3367 -89.7772 146° Southeast 150 173 12,100  Level Houston Center
05:53PM 30.3358 -89.8083 268° West 150 173 12,100 -120 Level Houston Center
05:53PM 30.3331 -89.8322 262° West 154 177 12,000  Descending Houston Center
05:54PM 30.3294 -89.8639 262° West 149 171 12,100  Climbing Houston Center
05:54PM 30.3275 -89.8786 261° West 148 170 12,000  Descending Houston Center
05:55PM 30.3225 -89.9100 260° West 148 170 12,100  Climbing Houston Center
05:55PM 30.3219 -89.9250 268° West 147 169 12,000  Descending Houston Center
05:56PM 30.3178 -89.9536 260° West 148 170 12,100  Climbing Houston Center
05:56PM 30.3167 -89.9736 266° West 151 174 12,000  Descending Houston Center
05:57PM 30.3131 -90.0019 262° West 151 174 12,100  Climbing Houston Center
05:58PM 30.3108 -90.0303 265° West 149 171 12,000  Descending Houston Center
05:58PM 30.3083 -90.0503 262° West 149 171 12,100  Climbing Houston Center
05:59PM 30.3044 -90.0769 260° West 148 170 12,000  Descending Houston Center
05:59PM 30.2997 -90.1133 261° West 148 170 12,100  Climbing Houston Center
06:00PM 30.2978 -90.1236 258° West 147 169 12,000  Descending Houston Center
06:00PM 30.2944 -90.1422 258° West 149 171 12,100  Climbing Houston Center
06:01PM 30.2908 -90.1708 262° West 149 171 12,000  Descending Houston Center
06:01PM 30.2878 -90.1933 261° West 147 169 12,100  Climbing Houston Center
06:02PM 30.2847 -90.2172 262° West 149 171 12,000  Descending Houston Center
06:02PM 30.2792 -90.2536 260° West 146 168 12,100  Climbing Houston Center
06:03PM 30.2775 -90.2633 259° West 148 170 12,000  Descending Houston Center
06:03PM 30.2736 -90.2853 258° West 147 169 12,100  Climbing Houston Center
06:04PM 30.2678 -90.3183 258° West 147 169 12,000  Descending Houston Center
06:04PM 30.2647 -90.3314 255° West 148 170 12,100  Climbing Houston Center
06:05PM 30.2592 -90.3656 259° West 151 174 12,000 -60 Descending Houston Center
06:06PM 30.2494 -90.4106 256° West 145 167 12,000  Level Houston Center
06:07PM 30.2400 -90.4575 257° West 149 171 12,000  Level Houston Center
06:08PM 30.2311 -90.5028 257° West 146 168 12,000  Level Houston Center
06:09PM 30.2222 -90.5486 257° West 147 169 12,000  Level Houston Center
06:10PM 30.2114 -90.6031 257° West 147 169 12,000  Level Houston Center
06:11PM 30.2019 -90.6492 257° West 148 170 12,000  Level Houston Center
06:12PM 30.1914 -90.6936 255° West 145 167 12,000  Level Houston Center
06:13PM 30.1811 -90.7392 255° West 147 169 12,000  Level Houston Center
06:14PM 30.1703 -90.7836 254° West 146 168 12,000  Level Houston Center
06:15PM 30.1608 -90.8286 256° West 145 167 12,000  Level Houston Center
06:16PM 30.1481 -90.8819 255° West 144 166 12,000  Level Houston Center
06:17PM 30.1372 -90.9289 255° West 149 171 12,000  Level Houston Center
06:18PM 30.1275 -90.9736 256° West 146 168 12,000  Level Houston Center
06:19PM 30.1178 -91.0200 256° West 147 169 12,000  Level Houston Center
06:20PM 30.1058 -91.0658 253° West 149 171 12,000  Level Houston Center
06:21PM 30.0964 -91.1103 256° West 145 167 12,000  Level Houston Center
06:22PM 30.0847 -91.1653 256° West 148 170 12,000  Level Houston Center
06:23PM 30.0758 -91.2108 257° West 146 168 12,000  Level Houston Center
06:24PM 30.0644 -91.2575 254° West 150 173 12,000  Level Houston Center
06:25PM 30.0542 -91.3042 256° West 150 173 12,000  Level Houston Center
06:26PM 30.0403 -91.3494 250° West 150 173 12,000  Level Houston Center
06:28PM 30.0225 -91.4042 249° West 151 174 12,000  Level Houston Center
06:29PM 30.0100 -91.4472 251° West 145 167 12,000  Level Houston Center
06:30PM 29.9950 -91.4939 250° West 150 173 12,000  Level Houston Center
06:31PM 29.9811 -91.5406 251° West 155 178 12,100  Climbing Houston Center
06:32PM 29.9719 -91.5847 257° West 146 168 12,100 -60 Level Houston Center
06:33PM 29.9597 -91.6311 253° West 149 171 12,000 -60 Descending Houston Center
06:34PM 29.9439 -91.6858 252° West 150 173 12,000 -60 Level Houston Center
06:35PM 29.9322 -91.7319 254° West 150 173 11,900  Descending Houston Center
06:36PM 29.9225 -91.7764 256° West 146 168 12,000  Climbing Houston Center
06:37PM 29.9181 -91.8239 264° West 149 171 12,000 -60 Level Houston Center
06:38PM 29.9217 -91.8703 275° West 146 168 11,900  Descending Houston Center
06:39PM 29.9222 -91.9175 271° West 147 169 12,000  Climbing Houston Center
06:40PM 29.9250 -91.9644 274° West 148 170 12,000  Level Houston Center
06:41PM 29.9322 -92.0203 279° West 147 169 12,000  Level Houston Center
06:42PM 29.9378 -92.0686 278° West 151 174 12,000  Level Houston Center
06:43PM 29.9431 -92.1172 277° West 152 175 12,000  Level Houston Center
06:44PM 29.9450 -92.1656 273° West 152 175 12,000  Level Houston Center
06:45PM 29.9464 -92.2139 272° West 151 174 12,000  Level Houston Center
06:46PM 29.9492 -92.2600 274° West 147 169 12,000  Level Houston Center
06:47PM 29.9544 -92.3147 276° West 145 167 12,000  Level Houston Center
06:48PM 29.9672 -92.3589 288° West 146 168 12,000  Level Houston Center
06:49PM 29.9778 -92.4019 286° West 142 163 12,000  Level Houston Center
06:50PM 29.9936 -92.4442 293° West 143 165 12,000  Level Houston Center
06:51PM 30.0100 -92.4853 295° West 142 163 12,000  Level Houston Center
06:52PM 30.0211 -92.5275 287° West 138 159 12,000  Level Houston Center
06:53PM 30.0161 -92.5814 264° West 139 160 12,000  Level Houston Center
06:54PM 30.0142 -92.6247 267° West 138 159 12,000  Level Houston Center
06:55PM 30.0281 -92.6644 292° West 141 162 12,000  Level Houston Center
06:56PM 30.0539 -92.6981 312° West 142 163 12,000  Level Houston Center
06:57PM 30.0792 -92.7328 310° West 142 163 12,000  Level Houston Center
06:59PM 30.1044 -92.7678 310° West 142 163 12,000  Level Houston Center
07:00PM 30.1367 -92.8097 312° West 145 167 12,000  Level Houston Center
07:01PM 30.1622 -92.8450 310° West 145 167 12,000  Level Houston Center
07:02PM 30.1881 -92.8808 310° West 146 168 12,000  Level Houston Center
07:03PM 30.2142 -92.9175 309° West 148 170 12,000  Level Houston Center
07:04PM 30.2408 -92.9522 312° West 146 168 12,000  Level Houston Center
07:05PM 30.2667 -92.9872 311° West 144 166 12,000  Level Houston Center
07:06PM 30.2975 -93.0300 310° West 145 167 12,000  Level Houston Center
07:07PM 30.3247 -93.0667 311° West 148 170 12,000  Level Houston Center
07:08PM 30.3508 -93.1017 311° West 146 168 12,000  Level Houston Center
07:09PM 30.3767 -93.1375 310° West 145 167 12,000  Level Houston Center
07:10PM 30.4033 -93.1747 310° West 149 171 12,000  Level Houston Center
07:11PM 30.4303 -93.2108 311° West 149 171 12,000  Level Houston Center
07:12PM 30.4614 -93.2547 309° West 149 171 12,000  Level Houston Center
07:13PM 30.4881 -93.2897 311° West 146 168 12,000  Level Houston Center
07:14PM 30.5144 -93.3261 310° West 148 170 12,000  Level Houston Center
07:15PM 30.5403 -93.3619 310° West 146 168 12,000  Level Houston Center
07:16PM 30.5667 -93.3978 311° West 145 167 12,000  Level Houston Center
07:17PM 30.5981 -93.4403 311° West 144 166 12,000  Level Houston Center
07:18PM 30.6236 -93.4764 309° West 145 167 12,000  Level Houston Center
07:19PM 30.6500 -93.5128 310° West 148 170 12,000  Level Houston Center
07:20PM 30.6756 -93.5478 310° West 144 166 12,000  Level Houston Center
07:21PM 30.7011 -93.5836 310° West 143 165 12,000  Level Houston Center
07:22PM 30.7269 -93.6197 310° West 145 167 12,000  Level Houston Center
07:23PM 30.7586 -93.6628 311° West 143 165 12,000  Level Houston Center
07:24PM 30.7842 -93.6981 310° West 143 165 12,000  Level Houston Center
07:25PM 30.8100 -93.7331 311° West 143 165 12,000  Level Houston Center
07:26PM 30.8356 -93.7683 310° West 143 165 12,000  Level Houston Center
07:27PM 30.8625 -93.8044 311° West 145 167 12,000  Level Houston Center
07:28PM 30.8878 -93.8394 310° West 144 166 12,000  Level Houston Center
07:29PM 30.9186 -93.8828 310° West 144 166 12,000  Level Houston Center
07:30PM 30.9436 -93.9194 308° West 144 166 12,000  Level Houston Center
07:32PM 30.9692 -93.9542 311° West 141 162 12,000  Level Houston Center
07:33PM 30.9925 -93.9872 309° West 140 161 12,000  Level Houston Center
07:34PM 31.0150 -94.0233 306° West 137 158 12,000  Level Houston Center
07:35PM 31.0464 -94.0658 311° West 142 163 12,000  Level Houston Center
07:36PM 31.0722 -94.1014 310° West 142 163 12,000  Level Houston Center
07:37PM 31.0972 -94.1372 309° West 143 165 12,000  Level Houston Center
07:38PM 31.1242 -94.1739 311° West 146 168 12,000  Level Houston Center
07:39PM 31.1475 -94.2117 306° West 146 168 12,000  Level Houston Center
07:40PM 31.1711 -94.2494 306° West 144 166 12,000  Level Houston Center
07:41PM 31.1981 -94.2969 304° West 145 167 12,000  Level Houston Center
07:42PM 31.2192 -94.3358 302° West 144 166 12,000  Level Houston Center
07:43PM 31.2411 -94.3747 303° West 143 165 12,000  Level Houston Center
07:44PM 31.2633 -94.4131 304° West 142 163 12,000  Level Houston Center
07:45PM 31.2844 -94.4525 302° West 143 165 12,000  Level Houston Center
07:46PM 31.3058 -94.4919 302° West 144 166 12,000  Level Houston Center
07:47PM 31.3328 -94.5383 304° West 144 166 12,000  Level Houston Center
07:48PM 31.3558 -94.5764 305° West 145 167 12,000  Level Houston Center
07:49PM 31.3806 -94.6136 308° West 145 167 12,000  Level Houston Center
07:50PM 31.4058 -94.6500 309° West 145 167 12,000  Level Houston Center
07:51PM 31.4331 -94.6839 313° West 144 166 12,100  Climbing Houston Center
07:52PM 31.4592 -94.7203 310° West 146 168 12,100  Level Houston Center
07:53PM 31.4897 -94.7622 311° West 143 165 12,100  Level Houston Center
07:54PM 31.5153 -94.7978 310° West 144 166 12,100  Level Houston Center
07:55PM 31.5397 -94.8325 310° West 139 160 12,100  Level Houston Center
07:56PM 31.5658 -94.8675 311° West 141 162 12,100  Level Houston Center
07:57PM 31.5900 -94.9017 310° West 139 160 12,100  Level Houston Center
07:58PM 31.6150 -94.9356 311° West 137 158 12,100  Level Houston Center
07:59PM 31.6439 -94.9758 310° West 135 155 12,100 -180 Level Houston Center
08:00PM 31.6692 -95.0114 310° West 141 162 11,800 -240 Descending Houston Center
08:01PM 31.6975 -95.0461 314° West 145 167 11,700 -120 Descending Houston Center
08:02PM 31.7225 -95.0808 310° West 141 162 11,600 -240 Descending Houston Center
08:03PM 31.7492 -95.1183 310° West 146 168 11,300 -300 Descending Houston Center
08:05PM 31.7822 -95.1675 308° West 146 168 11,000 -240 Descending Fort Worth Center
08:06PM 31.8097 -95.2033 312° West 146 168 10,800 -180 Descending Fort Worth Center
08:07PM 31.8356 -95.2394 310° West 151 174 10,700 -120 Descending Fort Worth Center
08:08PM 31.8614 -95.2781 308° West 151 174 10,600 -240 Descending Fort Worth Center
08:09PM 31.8847 -95.3117 309° West 151 174 10,300 -300 Descending Fort Worth Center
08:10PM 31.9125 -95.3503 310° West 151 174 10,100 -180 Descending Fort Worth Center
08:11PM 31.9403 -95.3864 312° West 151 174 10,000 -180 Descending Fort Worth Center
08:12PM 31.9658 -95.4250 308° West 151 174 9,800 -240 Descending Fort Worth Center
08:13PM 31.9917 -95.4586 312° West 151 174 9,600 -180 Descending Fort Worth Center
08:14PM 32.0194 -95.4997 309° West 151 174 9,500 -240 Descending Fort Worth Center
08:15PM 32.0469 -95.5383 310° West 151 174 9,200 -300 Descending Fort Worth Center
08:16PM 32.0769 -95.5769 313° West 151 174 8,900 -300 Descending Fort Worth Center
08:17PM 32.1044 -95.6156 310° West 151 174 8,600 -300 Descending Fort Worth Center
08:18PM 32.1322 -95.6569 308° West 157 181 8,300 -240 Descending Fort Worth Center
08:19PM 32.1642 -95.6931 316° Northwest 157 181 8,200  Descending Fort Worth Center
08:20PM 32.1875 -95.7319 305° West 157 181 8,300  Climbing Fort Worth Center
08:21PM 32.2111 -95.7683 307° West 152 175 8,300 -60 Level Fort Worth Center
08:22PM 32.2408 -95.8069 312° West 152 175 8,200 -120 Descending Fort Worth Center
08:23PM 32.2642 -95.8458 305° West 152 175 8,100 -180 Descending Fort Worth Center
08:24PM 32.2917 -95.8847 310° West 152 175 7,900 -180 Descending Fort Worth Center
08:25PM 32.3194 -95.9236 310° West 152 175 7,800 -180 Descending Fort Worth Center
08:26PM 32.3489 -95.9575 316° Northwest 152 175 7,600 -300 Descending Fort Worth Center
08:27PM 32.3808 -96.0039 309° West 163 188 7,200 -300 Descending Fort Worth Center
08:28PM 32.4064 -96.0403 310° West 163 188 7,000 -240 Descending Fort Worth Center
08:29PM 32.4381 -96.0867 309° West 163 188 6,800 -240 Descending Fort Worth Center
08:30PM 32.4614 -96.1233 307° West 163 188 6,600 -300 Descending Fort Worth Center
08:31PM 32.4931 -96.1647 312° West 158 182 6,300 -300 Descending Fort Worth Center
08:32PM 32.5186 -96.2014 310° West 163 188 6,100 -180 Descending Fort Worth Center
08:33PM 32.5483 -96.2453 309° West 157 181 6,000 -180 Descending Fort Worth Center
08:34PM 32.5736 -96.2819 309° West 157 181 5,800 -300 Descending Fort Worth Center
08:35PM 32.6053 -96.3258 311° West 162 186 5,500 -180 Descending Fort Worth Center
08:36PM 32.6286 -96.3650 305° West 162 186 5,500  Level Fort Worth Center
08:38PM 32.6777 -96.4336 North  Level Estimated
08:45PM 32.7333 -96.5167 344° North  Level FlightAware Approximate
08:46PM 32.7470 -96.5304 344° North  Level Estimated
08:47PM 32.7470 -96.5304 344° North  Level Estimated
08:48PM 32.7470 -96.5304 344° North  Level Estimated
08:49PM 32.7470 -96.5304 344° North  Level Estimated
08:50PM 32.7470 -96.5304 344° North  Level Estimated
08:51PM 32.7470 -96.5304 344° North  Level Estimated
08:52PM 32.7470 -96.5304 344° North  Level Estimated